createdAt,value
2022-08-29T00:03:02.504Z,100.00
2022-08-29T00:08:30.460Z,100.00
2022-08-29T00:13:52.627Z,100.00
2022-08-29T00:19:14.450Z,100.00
2022-08-29T00:24:36.297Z,100.00
2022-08-29T00:29:58.139Z,100.00
2022-08-29T00:35:26.788Z,100.00
2022-08-29T00:40:53.964Z,100.00
2022-08-29T00:46:36.942Z,100.00
2022-08-29T00:52:03.819Z,100.00
2022-08-29T00:57:28.712Z,100.00
2022-08-29T01:02:50.537Z,100.00
2022-08-29T01:08:12.705Z,100.00
2022-08-29T01:13:38.808Z,100.00
2022-08-29T01:19:12.361Z,100.00
2022-08-29T01:24:47.691Z,100.00
2022-08-29T01:30:10.303Z,100.00
2022-08-29T01:35:32.173Z,100.00
2022-08-29T01:40:58.014Z,100.00
2022-08-29T01:46:27.671Z,100.00
2022-08-29T01:51:50.120Z,100.00
2022-08-29T01:57:13.384Z,100.00
2022-08-29T02:02:35.508Z,100.00
2022-08-29T02:07:58.617Z,100.00
2022-08-29T02:13:20.708Z,100.00
2022-08-29T02:18:43.187Z,100.00
2022-08-29T02:24:23.930Z,100.00
2022-08-29T02:29:47.116Z,100.00
2022-08-29T02:35:08.986Z,100.00
2022-08-29T02:40:32.873Z,100.00
2022-08-29T02:45:55.229Z,100.00
2022-08-29T02:51:26.175Z,100.00
2022-08-29T02:56:47.991Z,100.00
2022-08-29T03:02:09.904Z,100.00
2022-08-29T03:07:32.394Z,100.00
2022-08-29T03:12:54.952Z,100.00
2022-08-29T03:18:17.472Z,100.00
2022-08-29T03:23:39.316Z,100.00
2022-08-29T03:29:01.317Z,100.00
2022-08-29T03:34:23.125Z,100.00
2022-08-29T03:39:44.962Z,100.00
2022-08-29T03:45:11.689Z,100.00
2022-08-29T03:50:33.584Z,100.00
2022-08-29T03:55:55.405Z,100.00
2022-08-29T04:01:18.233Z,100.00
2022-08-29T04:06:40.062Z,100.00
2022-08-29T04:12:01.942Z,100.00
2022-08-29T04:17:23.770Z,100.00
2022-08-29T04:22:45.732Z,100.00
2022-08-29T04:28:11.005Z,100.00
2022-08-29T04:33:32.791Z,100.00
2022-08-29T04:38:54.708Z,100.00
2022-08-29T04:44:16.519Z,100.00
2022-08-29T04:49:38.366Z,100.00
2022-08-29T04:55:00.253Z,100.00
2022-08-29T05:00:25.878Z,100.00
2022-08-29T05:05:58.398Z,100.00
2022-08-29T05:11:22.528Z,100.00
2022-08-29T05:16:45.052Z,100.00
2022-08-29T05:22:06.885Z,100.00
2022-08-29T05:27:28.736Z,100.00
2022-08-29T05:32:50.753Z,100.00
2022-08-29T05:38:12.982Z,100.00
2022-08-29T05:43:35.604Z,100.00
2022-08-29T05:48:57.568Z,100.00
2022-08-29T05:54:19.417Z,100.00
2022-08-29T05:59:41.943Z,100.00
2022-08-29T06:05:04.172Z,100.00
2022-08-29T06:10:26.020Z,100.00
2022-08-29T06:15:47.865Z,100.00
2022-08-29T06:21:11.158Z,100.00
2022-08-29T06:26:33.298Z,100.00
2022-08-29T06:31:59.057Z,98.47
2022-08-29T06:37:20.864Z,95.90
2022-08-29T06:42:42.665Z,94.54
2022-08-29T06:48:04.580Z,94.92
2022-08-29T06:53:32.301Z,96.17
2022-08-29T06:58:54.599Z,95.13
2022-08-29T07:04:16.899Z,94.01
2022-08-29T07:09:42.582Z,96.94
2022-08-29T07:15:05.410Z,93.92
2022-08-29T07:20:27.224Z,90.62
2022-08-29T07:25:49.023Z,88.70
2022-08-29T07:31:11.032Z,90.04
2022-08-29T07:36:34.468Z,88.92
2022-08-29T07:41:56.646Z,90.28
2022-08-29T07:47:18.457Z,90.73
2022-08-29T07:52:40.789Z,90.02
2022-08-29T07:58:03.119Z,90.74
2022-08-29T08:03:25.140Z,89.48
2022-08-29T08:08:47.795Z,90.61
2022-08-29T08:14:10.653Z,87.02
2022-08-29T08:19:32.471Z,84.44
2022-08-29T08:24:54.839Z,77.88
2022-08-29T08:30:16.930Z,74.40
2022-08-29T08:35:42.047Z,75.22
2022-08-29T08:41:25.175Z,72.96
2022-08-29T08:46:53.635Z,71.35
2022-08-29T08:52:21.411Z,72.95
2022-08-29T08:57:50.216Z,74.36
2022-08-29T09:03:37.828Z,74.31
2022-08-29T09:09:17.691Z,71.91
2022-08-29T09:14:57.607Z,70.05
2022-08-29T09:20:24.765Z,71.54
2022-08-29T09:25:47.445Z,63.93
2022-08-29T09:31:33.611Z,56.38
2022-08-29T09:36:55.459Z,61.00
2022-08-29T09:42:21.222Z,60.76
2022-08-29T09:47:43.756Z,58.08
2022-08-29T09:53:10.069Z,59.45
2022-08-29T09:58:58.678Z,59.02
2022-08-29T10:04:38.662Z,51.95
2022-08-29T10:10:14.173Z,56.66
2022-08-29T10:15:51.338Z,58.27
2022-08-29T10:21:28.570Z,57.42
2022-08-29T10:27:14.315Z,52.17
2022-08-29T10:32:44.453Z,49.42
2022-08-29T10:38:19.684Z,50.60
2022-08-29T10:44:12.947Z,50.83
2022-08-29T10:49:54.737Z,49.03
2022-08-29T10:55:50.258Z,48.77
2022-08-29T11:01:19.746Z,48.45
2022-08-29T11:06:48.592Z,46.99
2022-08-29T11:12:19.647Z,45.78
2022-08-29T11:17:44.322Z,46.99
2022-08-29T11:23:12.606Z,46.29
2022-08-29T11:28:40.295Z,46.24
2022-08-29T11:34:22.468Z,46.81
2022-08-29T11:39:57.111Z,47.10
2022-08-29T11:45:28.345Z,45.44
2022-08-29T11:50:59.196Z,45.60
2022-08-29T11:56:27.884Z,45.74
2022-08-29T12:01:59.949Z,44.25
2022-08-29T12:07:33.194Z,44.79
2022-08-29T12:12:57.998Z,44.98
2022-08-29T12:18:19.751Z,45.55
2022-08-29T12:23:45.593Z,44.56
2022-08-29T12:29:15.643Z,45.51
2022-08-29T12:34:57.833Z,44.59
2022-08-29T12:40:45.938Z,43.68
2022-08-29T12:46:36.823Z,44.41
2022-08-29T12:52:04.709Z,44.33
2022-08-29T12:57:33.681Z,43.92
2022-08-29T13:03:05.593Z,44.48
2022-08-29T13:08:37.555Z,45.29
2022-08-29T13:14:12.307Z,43.75
2022-08-29T13:19:34.142Z,43.38
2022-08-29T13:25:06.941Z,43.57
2022-08-29T13:30:28.945Z,43.56
2022-08-29T13:35:50.816Z,43.76
2022-08-29T13:41:27.657Z,42.00
2022-08-29T13:46:51.518Z,42.69
2022-08-29T13:52:15.211Z,42.39
2022-08-29T13:57:40.175Z,42.47
2022-08-29T14:03:04.343Z,41.98
2022-08-29T14:08:26.892Z,42.28
2022-08-29T14:13:48.755Z,42.16
2022-08-29T14:19:10.581Z,42.04
2022-08-29T14:24:33.285Z,41.95
2022-08-29T14:29:55.141Z,42.31
2022-08-29T14:35:25.842Z,42.32
2022-08-29T14:40:48.793Z,42.38
2022-08-29T14:46:10.716Z,42.49
2022-08-29T14:51:32.626Z,42.12
2022-08-29T14:56:54.446Z,42.42
2022-08-29T15:02:17.172Z,42.37
2022-08-29T15:07:40.018Z,42.71
2022-08-29T15:13:02.209Z,43.05
2022-08-29T15:18:48.380Z,42.96
2022-08-29T15:24:06.105Z,42.60
2022-08-29T15:29:28.384Z,42.98
2022-08-29T15:34:50.782Z,43.66
2022-08-29T15:40:13.643Z,43.24
2022-08-29T15:45:35.961Z,43.15
2022-08-29T15:50:58.375Z,43.18
2022-08-29T15:56:20.192Z,43.57
2022-08-29T16:01:45.278Z,44.13
2022-08-29T16:07:07.127Z,44.58
2022-08-29T16:12:28.999Z,45.84
2022-08-29T16:17:53.226Z,46.16
2022-08-29T16:23:15.094Z,46.04
2022-08-29T16:28:36.962Z,46.52
2022-08-29T16:33:58.803Z,46.82
2022-08-29T16:39:20.657Z,47.34
2022-08-29T16:44:42.499Z,47.99
2022-08-29T16:50:06.287Z,48.56
2022-08-29T16:55:28.862Z,49.19
2022-08-29T17:00:50.698Z,49.21
2022-08-29T17:06:12.554Z,49.60
2022-08-29T17:11:37.187Z,50.24
2022-08-29T17:16:59.061Z,51.17
2022-08-29T17:22:20.960Z,51.04
2022-08-29T17:27:55.457Z,51.88
2022-08-29T17:33:26.256Z,52.68
2022-08-29T17:38:48.564Z,52.79
2022-08-29T17:44:11.026Z,53.89
2022-08-29T17:49:32.858Z,54.26
2022-08-29T17:54:54.741Z,54.83
2022-08-29T18:00:17.767Z,55.25
2022-08-29T18:05:39.676Z,56.21
2022-08-29T18:11:02.038Z,57.03
2022-08-29T18:16:23.892Z,57.59
2022-08-29T18:21:45.759Z,58.34
2022-08-29T18:27:07.597Z,58.99
2022-08-29T18:32:29.697Z,59.98
2022-08-29T18:37:59.154Z,60.65
2022-08-29T18:43:21.019Z,61.28
2022-08-29T18:48:42.923Z,62.09
2022-08-29T18:54:04.919Z,62.96
2022-08-29T18:59:26.852Z,63.46
2022-08-29T19:04:48.745Z,62.96
2022-08-29T19:10:11.840Z,63.79
2022-08-29T19:15:34.796Z,64.36
2022-08-29T19:21:03.908Z,65.01
2022-08-29T19:26:32.240Z,65.45
2022-08-29T19:31:54.121Z,65.86
2022-08-29T19:37:15.960Z,65.86
2022-08-29T19:42:38.897Z,66.99
2022-08-29T19:48:00.740Z,67.56
2022-08-29T19:53:26.614Z,68.18
2022-08-29T19:58:49.488Z,69.46
2022-08-29T20:04:12.646Z,69.11
2022-08-29T20:09:35.379Z,70.31
2022-08-29T20:14:57.211Z,70.36
2022-08-29T20:20:26.745Z,71.44
2022-08-29T20:25:48.589Z,72.30
2022-08-29T20:31:10.761Z,72.43
2022-08-29T20:36:32.641Z,72.97
2022-08-29T20:41:57.569Z,73.33
2022-08-29T20:47:20.696Z,73.74
2022-08-29T20:52:42.517Z,74.35
2022-08-29T20:58:04.381Z,74.66
2022-08-29T21:03:26.547Z,75.36
2022-08-29T21:08:48.542Z,75.69
2022-08-29T21:14:10.449Z,77.31
2022-08-29T21:19:32.881Z,78.04
2022-08-29T21:24:55.161Z,79.09
2022-08-29T21:30:16.988Z,78.67
2022-08-29T21:35:40.677Z,79.87
2022-08-29T21:41:02.869Z,79.96
2022-08-29T21:46:31.002Z,80.97
2022-08-29T21:51:53.040Z,82.16
2022-08-29T21:57:15.246Z,82.71
2022-08-29T22:02:37.112Z,82.77
2022-08-29T22:07:59.297Z,82.45
2022-08-29T22:13:21.103Z,83.88
2022-08-29T22:18:42.917Z,84.44
2022-08-29T22:24:05.534Z,84.44
2022-08-29T22:29:27.417Z,85.25
2022-08-29T22:34:49.251Z,85.48
2022-08-29T22:40:15.181Z,86.08
2022-08-29T22:45:37.059Z,86.92
2022-08-29T22:50:58.898Z,87.23
2022-08-29T22:56:20.704Z,87.33
2022-08-29T23:01:43.964Z,87.97
2022-08-29T23:07:07.051Z,88.89
2022-08-29T23:12:29.163Z,89.08
2022-08-29T23:17:51.057Z,89.16
2022-08-29T23:23:12.967Z,89.49
2022-08-29T23:28:34.817Z,89.60
2022-08-29T23:33:56.667Z,90.51
2022-08-29T23:39:18.569Z,91.01
2022-08-29T23:44:40.376Z,91.38
2022-08-29T23:50:03.192Z,91.51
2022-08-29T23:55:25.003Z,91.60
